Aeroporto :
LOGIN :

Iscrizione | Disclaimer

   EN    FR    IT 

 










Sommario :    VFR   VFR Marginale   IFR   IFR Intensivo   IFR Molto Intensivo
Visibilità : 
Base nubi : 
>= 8 km
>= 3000ft
5 / 8 km
1000 / 3000 ft
1500m / 5 km
500 / 1000 ft
800 / 1500m
200 / 500 ft
< 800m
< 200 ft
Simboli :   Temporali  Nebbia  Neve Forte  Precipitazioni Forti  Vento > 20 kt
SIGMETs :   Varie  Temporali  Ghiacco  Turbolenza  Onda orograficha  Ceneri Vulcaniche






- Altitudine del aeroporto : 319 ft


EIME - Casement Air Base

ULTIMO METAR :
  • 221530Z 10009KT 9999 -SHRA FEW010 FEW018CB SCT030 BKN060 06/05 Q0990

METARs OBSOLETI :
  • 221500Z 13007KT 9000 SHRA FEW010 BKN030 06/04 Q0990
  • 221430Z 14010KT 9000 -SHRA FEW010 SCT015 BKN030 06/05 Q0990
  • 221400Z 12014KT 7000 -SHRAGR FEW010 SCT015 SCT018CB BKN030 06/04 Q0990
  • 221330Z 09007KT 9999 FEW010 FEW018CB BKN030 08/06 Q0989
  • 221300Z 08006KT 9999 -RADZ FEW010 BKN013 08/07 Q0990
  • 221230Z 10006KT 9999 FEW010 SCT015 BKN030 07/06 Q0990

TAF TAF EIME
Valido dal 22 a 15 ore il 23 a 00 ore UTC


221400Z 2215/2224 08010KT 9999 -RA FEW008 BKN018
TEMPO 2215/2224 5000 SHRAGR BKN008 SCT018CB



MetMap, La meteo Aeronautica in un colpo d'occhio ! - Copyright ORBIFLY Dicembre 2007 - Disclaimer

ORBIFLY MET'MAP TEAM :

Programmazione e sviluppo : Alexandra Zaïnal
Concezione e sviluppo : Baudouin d'Aumeries
Co-Programmazione e sviluppo : Marc-Olivier Méhu
Supporto tecnico e logistico : Manuel Goepfert
Aiuto per la traduzione : Arnaldo La Scala

Contatto : metmap@orbifly.com




FONTI E CREDITI :

   NOAA